Angelica, Pennsylvania
Current Conditions -  °F | °C
As of 7:54 AM on Friday 24 Oct 2014 (Local Time) from KRDG Reporting Station
Broken Clouds Broken Clouds  
Wind Chill: 56°   Ceiling: 3400
Heat Index: 56°   Visibility: 10mi
Dew Point: 45°   Wind: 15mph
Humidity: 67%   Direction: 320°NW
Pressure: 29.89"   Gusts: 23mph
Location:  40.2411°N, 75.9752°W
Report Text: KRDG 241154Z 32013G20KT 10SM BKN034 13/07 A2989 RMK AO2 SLP125 T01330072 10139 20128 51009
Loading
Personal Weather Stations






























Interactive Weather Map
Tropical Storm Tracking
New forecast layout! Learn more

10-Day Weather Forecast

Advertisements
Track Severe Weather on mobile